createdAt,value
2019-05-19T00:00:58.856Z,6.28
2019-05-19T00:03:27.261Z,6.47
2019-05-19T00:05:55.690Z,5.60
2019-05-19T00:08:24.103Z,5.50
2019-05-19T00:10:52.558Z,5.45
2019-05-19T00:13:20.966Z,5.60
2019-05-19T00:15:49.410Z,5.70
2019-05-19T00:18:17.823Z,6.33
2019-05-19T00:20:46.332Z,6.12
2019-05-19T00:23:14.778Z,5.87
2019-05-19T00:25:43.213Z,5.95
2019-05-19T00:28:11.635Z,6.25
2019-05-19T00:30:40.045Z,6.35
2019-05-19T00:33:08.492Z,6.12
2019-05-19T00:35:36.923Z,6.92
2019-05-19T00:38:05.326Z,6.50
2019-05-19T00:40:33.747Z,6.20
2019-05-19T00:43:02.206Z,6.25
2019-05-19T00:45:30.784Z,5.83
2019-05-19T00:47:59.377Z,6.42
2019-05-19T00:50:27.774Z,5.45
2019-05-19T00:52:57.830Z,5.20
2019-05-19T00:55:26.299Z,5.00
2019-05-19T00:57:54.957Z,4.75
2019-05-19T01:00:23.356Z,4.85
2019-05-19T01:02:51.848Z,4.60
2019-05-19T01:05:20.852Z,4.55
2019-05-19T01:07:49.385Z,3.60
2019-05-19T01:10:18.136Z,5.00
2019-05-19T01:12:46.569Z,4.50
2019-05-19T01:15:15.252Z,4.42
2019-05-19T01:17:43.777Z,4.78
2019-05-19T01:20:12.741Z,4.62
2019-05-19T01:22:41.331Z,4.60
2019-05-19T01:25:10.169Z,4.72
2019-05-19T01:27:38.606Z,4.75
2019-05-19T01:30:11.427Z,4.50
2019-05-19T01:32:39.860Z,4.80
2019-05-19T01:35:08.713Z,4.90
2019-05-19T01:37:37.725Z,4.87
2019-05-19T01:40:08.184Z,4.87
2019-05-19T01:42:36.873Z,4.78
2019-05-19T01:45:07.157Z,4.58
2019-05-19T01:47:35.582Z,3.90
2019-05-19T01:50:17.666Z,4.40
2019-05-19T01:52:36.785Z,4.50
2019-05-19T01:55:07.035Z,4.28
2019-05-19T01:57:35.467Z,4.70
2019-05-19T02:00:06.661Z,4.20
2019-05-19T02:02:35.074Z,4.47
2019-05-19T02:05:05.527Z,4.70
2019-05-19T02:07:33.978Z,4.50
2019-05-19T02:10:02.742Z,4.10
2019-05-19T02:12:31.281Z,4.15
2019-05-19T02:14:59.748Z,4.50
2019-05-19T02:17:28.237Z,4.47
2019-05-19T02:19:56.674Z,4.75
2019-05-19T02:22:25.168Z,4.62
2019-05-19T02:24:55.148Z,4.42
2019-05-19T02:27:23.696Z,4.15
2019-05-19T02:29:52.132Z,4.12
2019-05-19T02:32:20.547Z,3.92
2019-05-19T02:34:48.987Z,4.80
2019-05-19T02:37:17.402Z,4.03
2019-05-19T02:39:45.830Z,4.10
2019-05-19T02:42:15.983Z,4.30
2019-05-19T02:44:45.776Z,3.95
2019-05-19T02:47:15.213Z,3.72
2019-05-19T02:49:45.398Z,3.98
2019-05-19T02:52:15.445Z,3.87
2019-05-19T02:54:44.829Z,3.50
2019-05-19T02:57:13.431Z,3.40
2019-05-19T02:59:42.317Z,3.47
2019-05-19T03:02:12.375Z,4.30
2019-05-19T03:04:40.826Z,4.08
2019-05-19T03:07:09.544Z,4.37
2019-05-19T03:09:38.005Z,5.10
2019-05-19T03:12:06.438Z,4.87
2019-05-19T03:14:34.858Z,4.65
2019-05-19T03:17:03.296Z,4.47
2019-05-19T03:19:31.723Z,4.25
2019-05-19T03:22:00.161Z,4.75
2019-05-19T03:24:28.604Z,5.10
2019-05-19T03:26:57.043Z,5.10
2019-05-19T03:29:27.110Z,4.83
2019-05-19T03:31:57.186Z,5.15
2019-05-19T03:34:27.022Z,5.75
2019-05-19T03:36:55.593Z,6.00
2019-05-19T03:39:24.019Z,6.50
2019-05-19T03:41:52.442Z,6.28
2019-05-19T03:44:20.876Z,5.83
2019-05-19T03:46:49.309Z,5.90
2019-05-19T03:49:17.714Z,6.17
2019-05-19T03:51:46.189Z,6.58
2019-05-19T03:54:14.628Z,6.90
2019-05-19T03:56:43.053Z,7.03
2019-05-19T03:59:11.495Z,10.13
2019-05-19T04:01:39.909Z,7.08
2019-05-19T04:04:08.352Z,13.00
2019-05-19T04:06:36.793Z,12.37
2019-05-19T04:09:09.224Z,6.80
2019-05-19T04:11:37.110Z,6.92
2019-05-19T04:14:05.545Z,6.87
2019-05-19T04:16:33.981Z,6.90
2019-05-19T04:19:02.421Z,6.60
2019-05-19T04:21:47.604Z,6.17
2019-05-19T04:24:01.002Z,5.83
2019-05-19T04:26:29.482Z,5.70
2019-05-19T04:28:57.914Z,6.12
2019-05-19T04:31:26.354Z,5.40
2019-05-19T04:33:54.775Z,5.92
2019-05-19T04:36:23.204Z,6.40
2019-05-19T04:38:51.717Z,5.70
2019-05-19T04:41:20.133Z,5.87
2019-05-19T04:43:48.563Z,7.45
2019-05-19T04:46:17.052Z,9.08
2019-05-19T04:48:45.477Z,7.72
2019-05-19T04:51:13.924Z,8.23
2019-05-19T04:53:42.367Z,7.92
2019-05-19T04:56:10.798Z,8.13
2019-05-19T04:58:39.225Z,8.65
2019-05-19T05:01:07.670Z,9.00
2019-05-19T05:03:36.093Z,9.40
2019-05-19T05:06:04.543Z,10.10
2019-05-19T05:08:32.970Z,10.90
2019-05-19T05:11:03.058Z,11.12
2019-05-19T05:13:31.480Z,10.90
2019-05-19T05:15:59.949Z,7.90
2019-05-19T05:18:28.353Z,6.97
2019-05-19T05:20:56.801Z,6.37
2019-05-19T05:23:25.271Z,6.65
2019-05-19T05:25:53.706Z,6.10
2019-05-19T05:28:22.121Z,6.17
2019-05-19T05:30:50.584Z,6.35
2019-05-19T05:33:19.061Z,7.08
2019-05-19T05:35:47.525Z,7.30
2019-05-19T05:38:16.160Z,7.40
2019-05-19T05:40:45.092Z,7.78
2019-05-19T05:43:13.535Z,8.30
2019-05-19T05:45:41.961Z,8.13
2019-05-19T05:48:10.380Z,7.95
2019-05-19T05:50:38.817Z,7.40
2019-05-19T05:53:07.232Z,7.85
2019-05-19T05:55:37.238Z,7.87
2019-05-19T05:58:05.826Z,7.70
2019-05-19T06:00:34.272Z,8.05
2019-05-19T06:03:02.831Z,8.03
2019-05-19T06:05:31.321Z,7.90
2019-05-19T06:07:59.891Z,7.22
2019-05-19T06:10:28.303Z,7.03
2019-05-19T06:12:56.745Z,6.58
2019-05-19T06:15:25.257Z,7.55
2019-05-19T06:17:53.743Z,7.10
2019-05-19T06:20:22.169Z,7.92
2019-05-19T06:22:56.477Z,7.72
2019-05-19T06:25:21.072Z,7.33
2019-05-19T06:27:49.892Z,8.15
2019-05-19T06:30:18.682Z,7.65
2019-05-19T06:32:51.775Z,7.50
2019-05-19T06:35:20.345Z,7.78
2019-05-19T06:37:48.802Z,7.30
2019-05-19T06:40:18.101Z,7.60
2019-05-19T06:42:46.537Z,7.65
2019-05-19T06:45:15.589Z,8.15
2019-05-19T06:47:44.310Z,8.03
2019-05-19T06:50:13.278Z,7.60
2019-05-19T06:52:41.802Z,7.30
2019-05-19T06:55:10.438Z,7.60
2019-05-19T06:57:38.950Z,7.87
2019-05-19T07:00:08.422Z,8.28
2019-05-19T07:02:36.924Z,8.43
2019-05-19T07:05:08.757Z,8.75
2019-05-19T07:07:38.890Z,8.30
2019-05-19T07:10:07.919Z,8.23
2019-05-19T07:12:36.347Z,7.95
2019-05-19T07:15:06.928Z,6.87
2019-05-19T07:17:35.371Z,6.50
2019-05-19T07:20:05.184Z,6.67
2019-05-19T07:22:37.444Z,6.47
2019-05-19T07:25:05.639Z,6.30
2019-05-19T07:27:34.043Z,6.10
2019-05-19T07:30:03.014Z,5.92
2019-05-19T07:32:31.471Z,5.62
2019-05-19T07:34:59.934Z,4.92
2019-05-19T07:37:28.352Z,5.00
2019-05-19T07:39:56.785Z,5.12
2019-05-19T07:42:25.273Z,4.90
2019-05-19T07:44:53.720Z,4.42
2019-05-19T07:47:23.781Z,4.47
2019-05-19T07:49:52.290Z,4.40
2019-05-19T07:52:20.708Z,4.70
2019-05-19T07:54:49.135Z,4.90
2019-05-19T07:57:17.620Z,4.60
2019-05-19T07:59:46.074Z,5.20
2019-05-19T08:02:14.520Z,5.67
2019-05-19T08:04:42.956Z,5.15
2019-05-19T08:07:11.380Z,5.28
2019-05-19T08:09:39.824Z,5.47
2019-05-19T08:12:08.237Z,4.95
2019-05-19T08:14:36.698Z,5.58
2019-05-19T08:17:05.260Z,5.42
2019-05-19T08:19:33.707Z,5.35
2019-05-19T08:22:02.216Z,5.30
2019-05-19T08:24:30.779Z,5.58
2019-05-19T08:26:59.225Z,5.65
2019-05-19T08:29:27.656Z,5.65
2019-05-19T08:31:56.232Z,6.25
2019-05-19T08:34:24.720Z,5.97
2019-05-19T08:36:53.147Z,6.05
2019-05-19T08:39:21.580Z,6.80
2019-05-19T08:41:50.026Z,7.37
2019-05-19T08:44:18.452Z,6.60
2019-05-19T08:46:46.884Z,6.60
2019-05-19T08:49:15.307Z,6.20
2019-05-19T08:51:43.829Z,5.65
2019-05-19T08:54:15.079Z,5.33
2019-05-19T08:56:42.967Z,5.80
2019-05-19T08:59:11.516Z,5.47
2019-05-19T09:01:40.025Z,6.50
2019-05-19T09:04:08.512Z,6.10
2019-05-19T09:06:37.001Z,5.85
2019-05-19T09:09:06.256Z,6.40
2019-05-19T09:11:34.697Z,7.50
2019-05-19T09:14:03.121Z,5.40
2019-05-19T09:16:31.565Z,4.50
2019-05-19T09:19:00.012Z,5.05
2019-05-19T09:21:28.554Z,4.30
2019-05-19T09:23:57.107Z,4.00
2019-05-19T09:26:25.704Z,4.67
2019-05-19T09:28:54.156Z,6.08
2019-05-19T09:31:24.201Z,4.78
2019-05-19T09:33:52.641Z,5.03
2019-05-19T09:36:21.083Z,5.30
2019-05-19T09:38:49.506Z,3.77
2019-05-19T09:41:17.950Z,3.40
2019-05-19T09:43:46.408Z,3.60
2019-05-19T09:46:14.921Z,3.50
2019-05-19T09:48:43.374Z,3.52
2019-05-19T09:51:11.793Z,4.10
2019-05-19T09:53:40.239Z,3.95
2019-05-19T09:56:08.668Z,5.20
2019-05-19T09:58:37.184Z,4.70
2019-05-19T10:01:05.709Z,3.55
2019-05-19T10:03:34.168Z,4.72
2019-05-19T10:06:02.674Z,5.00
2019-05-19T10:08:32.055Z,4.08
2019-05-19T10:11:18.483Z,3.45
2019-05-19T10:13:47.012Z,3.50
2019-05-19T10:16:15.532Z,4.17
2019-05-19T10:18:44.022Z,3.30
2019-05-19T10:21:12.696Z,3.25
2019-05-19T10:23:41.195Z,3.85
2019-05-19T10:26:09.634Z,3.20
2019-05-19T10:28:38.072Z,2.25
2019-05-19T10:31:06.524Z,3.00
2019-05-19T10:33:35.039Z,3.22
2019-05-19T10:36:03.527Z,2.98
2019-05-19T10:38:31.954Z,3.00
2019-05-19T10:41:00.378Z,2.50
2019-05-19T10:43:28.810Z,2.37
2019-05-19T10:46:01.691Z,3.40
2019-05-19T10:48:30.384Z,3.08
2019-05-19T10:50:58.819Z,3.10
2019-05-19T10:53:27.290Z,3.33
2019-05-19T10:55:55.773Z,3.45
2019-05-19T10:58:24.184Z,2.95
2019-05-19T11:00:52.739Z,2.70
2019-05-19T11:03:21.228Z,3.27
2019-05-19T11:05:49.653Z,2.33
2019-05-19T11:08:18.171Z,2.55
2019-05-19T11:10:46.677Z,2.50
2019-05-19T11:13:15.103Z,2.85
2019-05-19T11:15:43.524Z,2.50
2019-05-19T11:18:11.950Z,2.92
2019-05-19T11:20:40.451Z,2.62
2019-05-19T11:23:08.878Z,2.55
2019-05-19T11:25:50.640Z,2.35
2019-05-19T11:28:07.454Z,2.62
2019-05-19T11:30:35.940Z,2.60
2019-05-19T11:33:04.384Z,2.98
2019-05-19T11:35:32.902Z,2.60
2019-05-19T11:38:01.388Z,2.42
2019-05-19T11:40:29.797Z,2.52
2019-05-19T11:42:58.261Z,2.42
2019-05-19T11:45:26.757Z,2.27
2019-05-19T11:47:55.200Z,2.42
2019-05-19T11:50:23.637Z,2.52
2019-05-19T11:52:52.098Z,2.70
2019-05-19T11:55:20.673Z,2.83
2019-05-19T11:57:49.109Z,3.02
2019-05-19T12:00:17.709Z,2.58
2019-05-19T12:02:46.142Z,2.80
2019-05-19T12:05:14.839Z,2.72
2019-05-19T12:07:43.426Z,3.08
2019-05-19T12:10:12.605Z,3.20
2019-05-19T12:12:41.033Z,3.00
2019-05-19T12:15:10.193Z,2.70
2019-05-19T12:17:38.624Z,2.77
2019-05-19T12:20:07.216Z,2.80
2019-05-19T12:22:37.311Z,2.58
2019-05-19T12:25:06.620Z,2.22
2019-05-19T12:27:35.041Z,2.30
2019-05-19T12:30:04.165Z,3.95
2019-05-19T12:32:32.607Z,3.80
2019-05-19T12:35:01.052Z,3.00
2019-05-19T12:37:29.550Z,3.65
2019-05-19T12:39:57.997Z,2.90
2019-05-19T12:42:26.543Z,3.58
2019-05-19T12:44:54.973Z,3.00
2019-05-19T12:47:23.408Z,2.75
2019-05-19T12:49:51.849Z,2.55
2019-05-19T12:52:20.379Z,2.90
2019-05-19T12:54:48.824Z,2.80
2019-05-19T12:57:17.247Z,3.10
2019-05-19T12:59:45.756Z,2.92
2019-05-19T13:02:14.167Z,2.85
2019-05-19T13:04:42.615Z,3.10
2019-05-19T13:07:11.063Z,3.40
2019-05-19T13:09:39.516Z,2.70
2019-05-19T13:12:08.085Z,3.25
2019-05-19T13:14:36.533Z,2.80
2019-05-19T13:17:05.025Z,2.87
2019-05-19T13:19:33.547Z,3.30
2019-05-19T13:22:02.018Z,3.52
2019-05-19T13:24:30.438Z,3.15
2019-05-19T13:26:58.872Z,2.95
2019-05-19T13:29:27.309Z,2.87
2019-05-19T13:31:55.785Z,3.08
2019-05-19T13:34:27.035Z,3.85
2019-05-19T13:36:55.544Z,3.50
2019-05-19T13:39:23.942Z,3.55
2019-05-19T13:41:52.393Z,3.60
2019-05-19T13:44:20.898Z,3.30
2019-05-19T13:46:49.668Z,3.45
2019-05-19T13:49:18.244Z,3.35
2019-05-19T13:51:46.745Z,3.62
2019-05-19T13:54:15.179Z,3.42
2019-05-19T13:56:43.622Z,2.92
2019-05-19T13:59:12.060Z,2.90
2019-05-19T14:01:40.517Z,3.30
2019-05-19T14:04:08.945Z,3.33
2019-05-19T14:06:37.451Z,3.50
2019-05-19T14:09:06.442Z,3.92
2019-05-19T14:11:35.093Z,3.30
2019-05-19T14:14:03.507Z,3.45
2019-05-19T14:16:31.925Z,2.92
2019-05-19T14:19:00.360Z,2.83
2019-05-19T14:21:28.827Z,3.40
2019-05-19T14:23:57.327Z,3.40
2019-05-19T14:26:25.774Z,3.20
2019-05-19T14:28:54.231Z,3.30
2019-05-19T14:31:22.675Z,3.10
2019-05-19T14:33:51.208Z,3.50
2019-05-19T14:36:19.627Z,3.37
2019-05-19T14:39:05.117Z,3.00
2019-05-19T14:41:33.844Z,3.45
2019-05-19T14:44:02.736Z,3.45
2019-05-19T14:46:31.349Z,3.30
2019-05-19T14:49:01.336Z,3.30
2019-05-19T14:51:29.804Z,3.55
2019-05-19T14:53:58.490Z,3.08
2019-05-19T14:56:26.920Z,3.08
2019-05-19T14:58:55.378Z,3.20
2019-05-19T15:01:23.797Z,3.10
2019-05-19T15:03:52.308Z,2.62
2019-05-19T15:06:20.747Z,2.70
2019-05-19T15:08:49.206Z,2.45
2019-05-19T15:11:17.654Z,3.67
2019-05-19T15:13:47.635Z,3.30
2019-05-19T15:16:16.076Z,2.95
2019-05-19T15:18:44.520Z,2.58
2019-05-19T15:21:12.934Z,3.10
2019-05-19T15:23:41.376Z,2.80
2019-05-19T15:26:09.808Z,2.75
2019-05-19T15:28:38.271Z,2.70
2019-05-19T15:31:06.768Z,2.85
2019-05-19T15:33:38.395Z,3.02
2019-05-19T15:36:05.491Z,5.53
2019-05-19T15:38:34.049Z,3.00
2019-05-19T15:41:02.601Z,3.05
2019-05-19T15:43:31.013Z,2.87
2019-05-19T15:45:59.452Z,4.30
2019-05-19T15:48:27.873Z,3.95
2019-05-19T15:50:56.326Z,3.40
2019-05-19T15:53:27.601Z,2.90
2019-05-19T15:55:56.044Z,3.17
2019-05-19T15:58:24.477Z,3.10
2019-05-19T16:00:52.912Z,3.00
2019-05-19T16:03:21.408Z,2.85
2019-05-19T16:05:50.017Z,2.70
2019-05-19T16:08:18.647Z,2.90
2019-05-19T16:10:47.106Z,3.00
2019-05-19T16:13:15.514Z,3.02
2019-05-19T16:15:43.969Z,2.83
2019-05-19T16:18:12.401Z,2.83
2019-05-19T16:20:40.841Z,2.50
2019-05-19T16:23:09.344Z,2.60
2019-05-19T16:25:37.794Z,2.35
2019-05-19T16:28:06.356Z,2.50
2019-05-19T16:30:34.776Z,2.20
2019-05-19T16:33:03.278Z,2.50
2019-05-19T16:35:31.726Z,2.50
2019-05-19T16:38:00.753Z,2.77
2019-05-19T16:40:29.184Z,2.35
2019-05-19T16:42:57.641Z,2.52
2019-05-19T16:45:26.132Z,2.50
2019-05-19T16:47:54.568Z,2.65
2019-05-19T16:50:22.973Z,2.30
2019-05-19T16:52:51.422Z,2.40
2019-05-19T16:55:27.473Z,2.45
2019-05-19T16:57:55.968Z,2.75
2019-05-19T17:00:25.219Z,2.27
2019-05-19T17:02:53.735Z,2.80
2019-05-19T17:05:22.172Z,2.40
2019-05-19T17:07:50.604Z,2.50
2019-05-19T17:10:19.202Z,2.35
2019-05-19T17:12:47.667Z,2.58
2019-05-19T17:15:16.853Z,2.42
2019-05-19T17:17:45.546Z,2.42
2019-05-19T17:20:14.923Z,2.40
2019-05-19T17:22:43.372Z,2.40
2019-05-19T17:25:11.989Z,2.40
2019-05-19T17:27:40.409Z,2.65
2019-05-19T17:30:10.796Z,2.50
2019-05-19T17:32:39.245Z,2.35
2019-05-19T17:35:08.118Z,2.30
2019-05-19T17:37:36.638Z,2.33
2019-05-19T17:40:07.147Z,2.30
2019-05-19T17:42:37.354Z,2.87
2019-05-19T17:45:06.964Z,2.58
2019-05-19T17:47:35.616Z,2.90
2019-05-19T17:50:05.330Z,2.67
2019-05-19T17:52:33.813Z,2.20
2019-05-19T17:55:02.492Z,2.35
2019-05-19T17:57:32.188Z,2.77
2019-05-19T18:00:01.590Z,2.62
2019-05-19T18:02:30.009Z,2.77
2019-05-19T18:04:58.450Z,3.17
2019-05-19T18:07:26.883Z,2.92
2019-05-19T18:09:55.359Z,3.00
2019-05-19T18:12:23.782Z,3.10
2019-05-19T18:14:54.038Z,3.00
2019-05-19T18:17:22.476Z,2.92
2019-05-19T18:19:51.176Z,2.80
2019-05-19T18:22:19.613Z,3.17
2019-05-19T18:24:48.056Z,2.87
2019-05-19T18:27:16.493Z,2.75
2019-05-19T18:29:45.041Z,2.92
2019-05-19T18:32:13.525Z,2.85
2019-05-19T18:34:41.957Z,2.87
2019-05-19T18:37:13.411Z,3.30
2019-05-19T18:39:40.569Z,2.95
2019-05-19T18:42:09.011Z,2.83
2019-05-19T18:44:37.437Z,3.00
2019-05-19T18:47:05.935Z,3.50
2019-05-19T18:49:34.400Z,3.15
2019-05-19T18:52:02.892Z,3.40
2019-05-19T18:54:31.314Z,3.00
2019-05-19T18:56:59.761Z,3.10
2019-05-19T18:59:28.230Z,3.50
2019-05-19T19:01:56.816Z,3.70
2019-05-19T19:04:25.306Z,3.70
2019-05-19T19:06:53.746Z,3.62
2019-05-19T19:09:22.164Z,3.60
2019-05-19T19:11:50.661Z,3.55
2019-05-19T19:14:19.155Z,4.15
2019-05-19T19:16:47.667Z,3.95
2019-05-19T19:19:16.120Z,5.03
2019-05-19T19:21:44.574Z,4.20
2019-05-19T19:24:13.299Z,4.03
2019-05-19T19:26:41.747Z,3.85
2019-05-19T19:29:10.190Z,4.22
2019-05-19T19:31:48.224Z,4.37
2019-05-19T19:34:08.811Z,4.28
2019-05-19T19:39:34.762Z,4.53
2019-05-19T19:42:03.202Z,4.37
2019-05-19T19:44:31.650Z,5.25
2019-05-19T19:47:00.083Z,4.78
2019-05-19T19:49:28.536Z,4.90
2019-05-19T19:51:57.004Z,5.12
2019-05-19T19:54:25.541Z,5.87
2019-05-19T19:56:54.025Z,5.22
2019-05-19T19:59:22.613Z,4.78
2019-05-19T20:01:53.280Z,4.65
2019-05-19T20:04:21.820Z,5.10
2019-05-19T20:06:50.238Z,4.62
2019-05-19T20:09:21.275Z,4.42
2019-05-19T20:11:48.917Z,4.87
2019-05-19T20:14:17.462Z,4.30
2019-05-19T20:16:45.920Z,4.42
2019-05-19T20:19:14.386Z,4.05
2019-05-19T20:21:42.797Z,4.15
2019-05-19T20:24:11.254Z,4.50
2019-05-19T20:26:39.694Z,3.92
2019-05-19T20:29:08.222Z,4.15
2019-05-19T20:31:36.642Z,3.87
2019-05-19T20:34:05.164Z,4.00
2019-05-19T20:36:33.669Z,3.70
2019-05-19T20:39:02.129Z,3.77
2019-05-19T20:41:30.578Z,3.70
2019-05-19T20:43:59.020Z,3.50
2019-05-19T20:46:27.469Z,4.10
2019-05-19T20:48:58.009Z,3.98
2019-05-19T20:51:26.495Z,3.50
2019-05-19T20:53:54.949Z,3.40
2019-05-19T20:56:23.411Z,3.40
2019-05-19T20:58:51.824Z,3.65
2019-05-19T21:01:20.293Z,3.95
2019-05-19T21:03:48.805Z,3.72
2019-05-19T21:06:18.920Z,3.98
2019-05-19T21:08:48.868Z,3.55
2019-05-19T21:11:18.859Z,3.65
2019-05-19T21:13:47.273Z,3.42
2019-05-19T21:16:15.698Z,3.62
2019-05-19T21:18:44.170Z,3.55
2019-05-19T21:21:12.672Z,3.00
2019-05-19T21:23:41.185Z,3.10
2019-05-19T21:26:09.663Z,3.08
2019-05-19T21:28:38.072Z,2.77
2019-05-19T21:31:06.631Z,2.72
2019-05-19T21:33:35.151Z,2.40
2019-05-19T21:36:03.576Z,2.27
2019-05-19T21:38:32.031Z,2.65
2019-05-19T21:41:00.548Z,2.37
2019-05-19T21:43:28.961Z,2.50
2019-05-19T21:45:57.397Z,2.00
2019-05-19T21:48:34.968Z,2.20
2019-05-19T21:51:03.548Z,2.22
2019-05-19T21:53:32.174Z,2.25
2019-05-19T21:56:00.629Z,2.30
2019-05-19T21:58:29.158Z,2.30
2019-05-19T22:00:57.581Z,2.40
2019-05-19T22:03:26.027Z,2.15
2019-05-19T22:05:54.486Z,2.30
2019-05-19T22:08:22.948Z,2.30
2019-05-19T22:10:51.420Z,2.55
2019-05-19T22:13:19.948Z,2.47
2019-05-19T22:15:50.081Z,2.42
2019-05-19T22:18:18.597Z,2.17
2019-05-19T22:20:47.076Z,2.35
2019-05-19T22:23:15.571Z,2.45
2019-05-19T22:25:43.994Z,2.62
2019-05-19T22:28:12.443Z,2.22
2019-05-19T22:30:40.853Z,2.67
2019-05-19T22:33:09.381Z,2.65
2019-05-19T22:35:37.791Z,2.60
2019-05-19T22:38:09.335Z,2.30
2019-05-19T22:40:40.893Z,2.17
2019-05-19T22:45:37.152Z,2.22
2019-05-19T22:48:05.622Z,2.00
2019-05-19T22:50:36.964Z,2.42
2019-05-19T22:53:05.414Z,2.17
2019-05-19T22:55:33.905Z,2.27
2019-05-19T22:58:02.352Z,2.12
2019-05-19T23:00:32.482Z,2.30
2019-05-19T23:03:00.903Z,2.25
2019-05-19T23:05:29.410Z,2.25
2019-05-19T23:07:57.918Z,2.70
2019-05-19T23:10:26.361Z,2.50
2019-05-19T23:12:54.777Z,2.45
2019-05-19T23:15:23.395Z,2.47
2019-05-19T23:17:51.813Z,2.47
2019-05-19T23:20:20.338Z,2.20
2019-05-19T23:22:48.773Z,2.35
2019-05-19T23:25:17.224Z,2.35
2019-05-19T23:27:45.652Z,2.35
2019-05-19T23:30:14.521Z,2.50
2019-05-19T23:32:42.945Z,2.45
2019-05-19T23:35:11.838Z,2.42
2019-05-19T23:37:40.329Z,2.72
2019-05-19T23:40:09.091Z,2.10
2019-05-19T23:42:37.536Z,2.20
2019-05-19T23:45:07.085Z,2.50
2019-05-19T23:47:35.564Z,2.33
2019-05-19T23:50:05.427Z,2.30
2019-05-19T23:52:33.845Z,2.47
2019-05-19T23:55:02.281Z,2.80
2019-05-19T23:57:30.796Z,2.85
2019-05-19T23:59:59.234Z,2.42
